CheckWX is a tool to help pilots better visualize weather data.  It is not intended as a substitute for an official pre-flight weather briefing.

10:02:53 UTC

SAAR TAF
Islas Malvinas Airport
Rosario, Argentina
TAF SAAR 250500Z 2506/2606 07005KT CAVOK TX22/2518Z TN08/2510Z BECMG 2508/2510 7000 NSC BECMG 2512/2514 09005KT CAVOK

Aug-25@
06:00 UTC

Aug-25 @ 06:00 UTC

Aug-25@
08:00 UTC

Aug-25 @ 08:00 UTC

TAF SAAR 250500Z 2506/2606 07005KT CAVOK TX22/2518Z TN08/2510Z

Expired

Wind
  • 070° at 5 KTS
Cloud Levels
  • No significant clouds

Aug-25@
08:00 UTC

Aug-25 @ 08:00 UTC

Aug-25@
12:00 UTC

Aug-25 @ 12:00 UTC

BECMG 2508/2510 7000 NSC

Becoming

Becoming Conditions expected by Sun, Aug 25, 2019 @ 10:00 UTC

Wind
  • 070° at 5 KTS
Cloud Levels
  • No significant clouds

Aug-25@
12:00 UTC

Aug-25 @ 12:00 UTC

Aug-26@
06:00 UTC

Aug-26 @ 06:00 UTC

BECMG 2512/2514 09005KT CAVOK

Becoming

Becoming Conditions expected by Sun, Aug 25, 2019 @ 14:00 UTC

Wind
  • 090° at 5 KTS
Conditions
No significant weather
Cloud Levels
  • No significant clouds